sensor_id;sensor_type;location;lat;lon;timestamp;P1;durP1;ratioP1;P2;durP2;ratioP2
37231;SDS011;23125;48.156;15.954;2022-11-30T00:00:57;27.20;;;14.10;;
37231;SDS011;23125;48.156;15.954;2022-11-30T00:03:23;26.13;;;13.85;;
37231;SDS011;23125;48.156;15.954;2022-11-30T00:05:50;26.58;;;13.15;;
37231;SDS011;23125;48.156;15.954;2022-11-30T00:08:17;28.83;;;13.55;;
37231;SDS011;23125;48.156;15.954;2022-11-30T00:10:43;25.33;;;12.43;;
37231;SDS011;23125;48.156;15.954;2022-11-30T00:13:09;28.80;;;14.60;;
37231;SDS011;23125;48.156;15.954;2022-11-30T00:15:35;23.20;;;13.50;;
37231;SDS011;23125;48.156;15.954;2022-11-30T00:18:02;27.60;;;14.18;;
37231;SDS011;23125;48.156;15.954;2022-11-30T00:20:28;25.95;;;13.57;;
37231;SDS011;23125;48.156;15.954;2022-11-30T00:22:55;26.60;;;13.57;;
37231;SDS011;23125;48.156;15.954;2022-11-30T00:25:22;24.23;;;13.23;;
37231;SDS011;23125;48.156;15.954;2022-11-30T00:27:51;25.92;;;13.30;;
37231;SDS011;23125;48.156;15.954;2022-11-30T00:30:17;25.65;;;13.57;;
37231;SDS011;23125;48.156;15.954;2022-11-30T00:32:42;25.67;;;13.82;;
37231;SDS011;23125;48.156;15.954;2022-11-30T00:35:08;27.08;;;14.07;;
37231;SDS011;23125;48.156;15.954;2022-11-30T00:37:34;33.10;;;15.93;;
37231;SDS011;23125;48.156;15.954;2022-11-30T00:40:00;30.67;;;15.40;;
37231;SDS011;23125;48.156;15.954;2022-11-30T00:42:26;28.52;;;14.48;;
37231;SDS011;23125;48.156;15.954;2022-11-30T00:44:52;28.73;;;14.63;;
37231;SDS011;23125;48.156;15.954;2022-11-30T00:47:17;27.23;;;15.02;;
37231;SDS011;23125;48.156;15.954;2022-11-30T00:49:43;24.42;;;14.07;;
37231;SDS011;23125;48.156;15.954;2022-11-30T00:52:09;28.65;;;14.73;;
37231;SDS011;23125;48.156;15.954;2022-11-30T00:54:35;25.75;;;12.95;;
37231;SDS011;23125;48.156;15.954;2022-11-30T00:57:01;28.63;;;14.25;;
37231;SDS011;23125;48.156;15.954;2022-11-30T00:59:26;24.80;;;12.05;;
37231;SDS011;23125;48.156;15.954;2022-11-30T01:01:53;23.48;;;12.55;;
37231;SDS011;23125;48.156;15.954;2022-11-30T01:04:19;24.10;;;12.52;;
37231;SDS011;23125;48.156;15.954;2022-11-30T01:06:45;23.65;;;13.13;;
37231;SDS011;23125;48.156;15.954;2022-11-30T01:09:11;25.90;;;13.07;;
37231;SDS011;23125;48.156;15.954;2022-11-30T01:11:37;25.92;;;13.23;;
37231;SDS011;23125;48.156;15.954;2022-11-30T01:14:03;24.63;;;12.38;;
37231;SDS011;23125;48.156;15.954;2022-11-30T01:16:30;25.58;;;13.30;;
37231;SDS011;23125;48.156;15.954;2022-11-30T01:18:57;24.48;;;12.35;;
37231;SDS011;23125;48.156;15.954;2022-11-30T01:21:24;23.58;;;12.68;;
37231;SDS011;23125;48.156;15.954;2022-11-30T01:23:51;24.45;;;12.20;;
37231;SDS011;23125;48.156;15.954;2022-11-30T01:26:17;29.42;;;13.40;;
37231;SDS011;23125;48.156;15.954;2022-11-30T01:28:43;22.27;;;11.93;;
37231;SDS011;23125;48.156;15.954;2022-11-30T01:31:13;24.95;;;12.60;;
37231;SDS011;23125;48.156;15.954;2022-11-30T01:33:39;27.05;;;12.50;;
37231;SDS011;23125;48.156;15.954;2022-11-30T01:36:11;27.70;;;13.10;;
37231;SDS011;23125;48.156;15.954;2022-11-30T01:38:40;27.17;;;13.25;;
37231;SDS011;23125;48.156;15.954;2022-11-30T01:41:08;28.50;;;13.85;;
37231;SDS011;23125;48.156;15.954;2022-11-30T01:46:16;31.17;;;14.88;;
37231;SDS011;23125;48.156;15.954;2022-11-30T01:51:36;26.98;;;14.48;;
37231;SDS011;23125;48.156;15.954;2022-11-30T01:54:12;28.45;;;14.13;;
37231;SDS011;23125;48.156;15.954;2022-11-30T01:56:50;30.58;;;14.57;;
37231;SDS011;23125;48.156;15.954;2022-11-30T01:59:20;30.85;;;14.55;;
37231;SDS011;23125;48.156;15.954;2022-11-30T02:01:48;29.83;;;14.65;;
37231;SDS011;23125;48.156;15.954;2022-11-30T02:04:17;33.92;;;15.80;;
37231;SDS011;23125;48.156;15.954;2022-11-30T02:06:43;28.88;;;15.82;;
37231;SDS011;23125;48.156;15.954;2022-11-30T02:09:11;35.17;;;17.00;;
37231;SDS011;23125;48.156;15.954;2022-11-30T02:11:39;33.63;;;16.48;;
37231;SDS011;23125;48.156;15.954;2022-11-30T02:14:09;30.75;;;15.50;;
37231;SDS011;23125;48.156;15.954;2022-11-30T02:16:48;33.55;;;16.23;;
37231;SDS011;23125;48.156;15.954;2022-11-30T02:27:57;29.42;;;14.80;;
37231;SDS011;23125;48.156;15.954;2022-11-30T02:30:35;29.52;;;14.65;;
37231;SDS011;23125;48.156;15.954;2022-11-30T02:33:06;26.83;;;14.70;;
37231;SDS011;23125;48.156;15.954;2022-11-30T02:35:39;29.45;;;15.52;;
37231;SDS011;23125;48.156;15.954;2022-11-30T02:38:07;31.83;;;14.25;;
37231;SDS011;23125;48.156;15.954;2022-11-30T02:40:35;30.05;;;15.63;;
37231;SDS011;23125;48.156;15.954;2022-11-30T02:43:01;28.75;;;14.50;;
37231;SDS011;23125;48.156;15.954;2022-11-30T02:45:37;30.10;;;15.55;;
37231;SDS011;23125;48.156;15.954;2022-11-30T02:48:11;30.73;;;15.18;;
37231;SDS011;23125;48.156;15.954;2022-11-30T02:50:43;28.42;;;15.25;;
37231;SDS011;23125;48.156;15.954;2022-11-30T02:53:15;30.52;;;15.25;;
37231;SDS011;23125;48.156;15.954;2022-11-30T02:55:41;33.50;;;16.08;;
37231;SDS011;23125;48.156;15.954;2022-11-30T02:58:07;33.67;;;16.20;;
37231;SDS011;23125;48.156;15.954;2022-11-30T03:00:33;34.60;;;16.90;;
37231;SDS011;23125;48.156;15.954;2022-11-30T03:02:59;37.78;;;16.63;;
37231;SDS011;23125;48.156;15.954;2022-11-30T03:05:24;36.75;;;17.10;;
37231;SDS011;23125;48.156;15.954;2022-11-30T03:07:50;34.00;;;16.55;;
37231;SDS011;23125;48.156;15.954;2022-11-30T03:10:16;43.15;;;18.83;;
37231;SDS011;23125;48.156;15.954;2022-11-30T03:12:42;37.30;;;18.25;;
37231;SDS011;23125;48.156;15.954;2022-11-30T03:15:08;43.42;;;19.25;;
37231;SDS011;23125;48.156;15.954;2022-11-30T03:17:34;43.58;;;19.10;;
37231;SDS011;23125;48.156;15.954;2022-11-30T03:20:00;41.40;;;19.38;;
37231;SDS011;23125;48.156;15.954;2022-11-30T03:22:26;35.65;;;18.17;;
37231;SDS011;23125;48.156;15.954;2022-11-30T03:24:52;41.95;;;18.17;;
37231;SDS011;23125;48.156;15.954;2022-11-30T03:27:17;39.08;;;18.13;;
37231;SDS011;23125;48.156;15.954;2022-11-30T03:29:43;39.47;;;17.92;;
37231;SDS011;23125;48.156;15.954;2022-11-30T03:32:09;39.67;;;18.67;;
37231;SDS011;23125;48.156;15.954;2022-11-30T03:34:35;37.25;;;18.10;;
37231;SDS011;23125;48.156;15.954;2022-11-30T03:37:01;38.05;;;17.95;;
37231;SDS011;23125;48.156;15.954;2022-11-30T03:39:27;38.65;;;18.63;;
37231;SDS011;23125;48.156;15.954;2022-11-30T03:41:53;47.38;;;20.50;;
37231;SDS011;23125;48.156;15.954;2022-11-30T03:44:19;38.00;;;18.10;;
37231;SDS011;23125;48.156;15.954;2022-11-30T03:46:45;37.53;;;18.05;;
37231;SDS011;23125;48.156;15.954;2022-11-30T03:49:11;38.00;;;18.25;;
37231;SDS011;23125;48.156;15.954;2022-11-30T03:51:37;39.85;;;18.10;;
37231;SDS011;23125;48.156;15.954;2022-11-30T03:54:03;41.58;;;19.48;;
37231;SDS011;23125;48.156;15.954;2022-11-30T03:56:28;41.05;;;19.38;;
37231;SDS011;23125;48.156;15.954;2022-11-30T03:58:54;38.50;;;17.73;;
37231;SDS011;23125;48.156;15.954;2022-11-30T04:01:20;41.50;;;19.38;;
37231;SDS011;23125;48.156;15.954;2022-11-30T04:03:48;41.53;;;19.15;;
37231;SDS011;23125;48.156;15.954;2022-11-30T04:06:15;48.42;;;19.63;;
37231;SDS011;23125;48.156;15.954;2022-11-30T04:08:42;42.60;;;18.95;;
37231;SDS011;23125;48.156;15.954;2022-11-30T04:11:08;39.47;;;18.20;;
37231;SDS011;23125;48.156;15.954;2022-11-30T04:13:34;47.50;;;20.98;;
37231;SDS011;23125;48.156;15.954;2022-11-30T04:16:01;46.03;;;20.33;;
37231;SDS011;23125;48.156;15.954;2022-11-30T04:18:29;39.22;;;18.38;;
37231;SDS011;23125;48.156;15.954;2022-11-30T04:20:57;49.05;;;21.45;;
37231;SDS011;23125;48.156;15.954;2022-11-30T04:23:24;37.67;;;18.67;;
37231;SDS011;23125;48.156;15.954;2022-11-30T04:25:55;43.20;;;18.67;;
37231;SDS011;23125;48.156;15.954;2022-11-30T04:28:21;64.07;;;27.55;;
37231;SDS011;23125;48.156;15.954;2022-11-30T04:30:47;48.55;;;21.90;;
37231;SDS011;23125;48.156;15.954;2022-11-30T04:33:13;46.55;;;21.40;;
37231;SDS011;23125;48.156;15.954;2022-11-30T04:35:41;38.25;;;18.88;;
37231;SDS011;23125;48.156;15.954;2022-11-30T04:38:12;36.30;;;16.73;;
37231;SDS011;23125;48.156;15.954;2022-11-30T04:40:38;40.58;;;19.38;;
37231;SDS011;23125;48.156;15.954;2022-11-30T04:43:05;37.78;;;17.90;;
37231;SDS011;23125;48.156;15.954;2022-11-30T04:45:31;39.75;;;18.20;;
37231;SDS011;23125;48.156;15.954;2022-11-30T04:47:57;35.58;;;17.73;;
37231;SDS011;23125;48.156;15.954;2022-11-30T04:50:23;35.50;;;17.42;;
37231;SDS011;23125;48.156;15.954;2022-11-30T04:52:49;38.70;;;18.70;;
37231;SDS011;23125;48.156;15.954;2022-11-30T04:55:15;38.78;;;18.83;;
37231;SDS011;23125;48.156;15.954;2022-11-30T04:57:44;41.38;;;19.45;;
37231;SDS011;23125;48.156;15.954;2022-11-30T05:00:11;43.90;;;18.88;;
37231;SDS011;23125;48.156;15.954;2022-11-30T05:02:38;39.55;;;18.48;;
37231;SDS011;23125;48.156;15.954;2022-11-30T05:05:04;38.67;;;18.65;;
37231;SDS011;23125;48.156;15.954;2022-11-30T05:07:30;42.15;;;19.90;;
37231;SDS011;23125;48.156;15.954;2022-11-30T05:09:56;43.70;;;20.08;;
37231;SDS011;23125;48.156;15.954;2022-11-30T05:12:22;41.55;;;20.00;;
37231;SDS011;23125;48.156;15.954;2022-11-30T05:14:47;44.72;;;18.63;;
37231;SDS011;23125;48.156;15.954;2022-11-30T05:17:13;41.75;;;18.13;;
37231;SDS011;23125;48.156;15.954;2022-11-30T05:19:39;40.38;;;18.88;;
37231;SDS011;23125;48.156;15.954;2022-11-30T05:22:05;42.97;;;20.00;;
37231;SDS011;23125;48.156;15.954;2022-11-30T05:24:31;41.97;;;18.42;;
37231;SDS011;23125;48.156;15.954;2022-11-30T05:26:57;48.30;;;19.65;;
37231;SDS011;23125;48.156;15.954;2022-11-30T05:29:23;43.85;;;19.30;;
37231;SDS011;23125;48.156;15.954;2022-11-30T05:31:49;45.67;;;20.25;;
37231;SDS011;23125;48.156;15.954;2022-11-30T05:34:15;43.28;;;20.35;;
37231;SDS011;23125;48.156;15.954;2022-11-30T05:36:41;43.67;;;20.02;;
37231;SDS011;23125;48.156;15.954;2022-11-30T05:39:06;45.13;;;20.20;;
37231;SDS011;23125;48.156;15.954;2022-11-30T05:41:32;48.72;;;20.83;;
37231;SDS011;23125;48.156;15.954;2022-11-30T05:43:58;44.08;;;19.60;;
37231;SDS011;23125;48.156;15.954;2022-11-30T05:46:24;46.30;;;22.10;;
37231;SDS011;23125;48.156;15.954;2022-11-30T05:48:50;47.00;;;22.17;;
37231;SDS011;23125;48.156;15.954;2022-11-30T05:51:16;50.47;;;21.15;;
37231;SDS011;23125;48.156;15.954;2022-11-30T05:53:44;46.75;;;20.08;;
37231;SDS011;23125;48.156;15.954;2022-11-30T05:56:12;45.65;;;20.90;;
37231;SDS011;23125;48.156;15.954;2022-11-30T05:58:40;45.95;;;20.83;;
37231;SDS011;23125;48.156;15.954;2022-11-30T06:01:07;48.67;;;21.63;;
37231;SDS011;23125;48.156;15.954;2022-11-30T06:03:33;50.88;;;20.92;;
37231;SDS011;23125;48.156;15.954;2022-11-30T06:06:00;50.65;;;22.08;;
37231;SDS011;23125;48.156;15.954;2022-11-30T06:08:26;49.55;;;22.45;;
37231;SDS011;23125;48.156;15.954;2022-11-30T06:10:52;54.25;;;22.42;;
37231;SDS011;23125;48.156;15.954;2022-11-30T06:13:18;53.42;;;25.55;;
37231;SDS011;23125;48.156;15.954;2022-11-30T06:15:45;51.47;;;22.92;;
37231;SDS011;23125;48.156;15.954;2022-11-30T06:18:11;53.45;;;26.25;;
37231;SDS011;23125;48.156;15.954;2022-11-30T06:20:37;55.47;;;24.02;;
37231;SDS011;23125;48.156;15.954;2022-11-30T06:23:04;53.25;;;22.88;;
37231;SDS011;23125;48.156;15.954;2022-11-30T06:25:30;47.97;;;21.15;;
37231;SDS011;23125;48.156;15.954;2022-11-30T06:27:56;53.58;;;22.70;;
37231;SDS011;23125;48.156;15.954;2022-11-30T06:30:22;54.40;;;23.88;;
37231;SDS011;23125;48.156;15.954;2022-11-30T06:32:49;51.70;;;22.60;;
37231;SDS011;23125;48.156;15.954;2022-11-30T06:35:16;51.17;;;23.17;;
37231;SDS011;23125;48.156;15.954;2022-11-30T06:37:43;51.63;;;22.40;;
37231;SDS011;23125;48.156;15.954;2022-11-30T06:40:11;53.40;;;22.77;;
37231;SDS011;23125;48.156;15.954;2022-11-30T06:42:37;53.63;;;23.15;;
37231;SDS011;23125;48.156;15.954;2022-11-30T06:45:04;52.50;;;23.60;;
37231;SDS011;23125;48.156;15.954;2022-11-30T06:47:31;48.88;;;22.50;;
37231;SDS011;23125;48.156;15.954;2022-11-30T06:49:57;55.05;;;24.30;;
37231;SDS011;23125;48.156;15.954;2022-11-30T06:52:23;53.30;;;22.45;;
37231;SDS011;23125;48.156;15.954;2022-11-30T06:54:49;56.22;;;24.50;;
37231;SDS011;23125;48.156;15.954;2022-11-30T06:57:15;51.65;;;23.73;;
37231;SDS011;23125;48.156;15.954;2022-11-30T06:59:41;53.47;;;24.20;;
37231;SDS011;23125;48.156;15.954;2022-11-30T07:02:11;55.45;;;24.65;;
37231;SDS011;23125;48.156;15.954;2022-11-30T07:04:38;56.10;;;24.48;;
37231;SDS011;23125;48.156;15.954;2022-11-30T07:07:04;55.10;;;24.23;;
37231;SDS011;23125;48.156;15.954;2022-11-30T07:09:32;55.85;;;25.00;;
37231;SDS011;23125;48.156;15.954;2022-11-30T07:11:59;55.42;;;25.13;;
37231;SDS011;23125;48.156;15.954;2022-11-30T07:14:25;59.65;;;25.67;;
37231;SDS011;23125;48.156;15.954;2022-11-30T07:16:51;55.80;;;24.55;;
37231;SDS011;23125;48.156;15.954;2022-11-30T07:19:17;46.45;;;22.50;;
37231;SDS011;23125;48.156;15.954;2022-11-30T07:21:43;57.75;;;24.85;;
37231;SDS011;23125;48.156;15.954;2022-11-30T07:24:13;57.65;;;24.17;;
37231;SDS011;23125;48.156;15.954;2022-11-30T07:26:58;54.00;;;23.75;;
37231;SDS011;23125;48.156;15.954;2022-11-30T07:29:25;59.08;;;24.30;;
37231;SDS011;23125;48.156;15.954;2022-11-30T07:31:52;52.65;;;21.70;;
37231;SDS011;23125;48.156;15.954;2022-11-30T07:34:18;59.00;;;24.13;;
37231;SDS011;23125;48.156;15.954;2022-11-30T07:36:45;56.13;;;23.13;;
37231;SDS011;23125;48.156;15.954;2022-11-30T07:39:12;48.28;;;23.10;;
37231;SDS011;23125;48.156;15.954;2022-11-30T07:41:39;51.88;;;22.98;;
37231;SDS011;23125;48.156;15.954;2022-11-30T07:44:06;52.13;;;22.85;;
37231;SDS011;23125;48.156;15.954;2022-11-30T07:46:33;50.47;;;22.33;;
37231;SDS011;23125;48.156;15.954;2022-11-30T07:49:00;53.70;;;23.58;;
37231;SDS011;23125;48.156;15.954;2022-11-30T07:51:31;50.13;;;22.55;;
37231;SDS011;23125;48.156;15.954;2022-11-30T07:53:58;52.45;;;23.40;;
37231;SDS011;23125;48.156;15.954;2022-11-30T07:56:24;51.20;;;23.08;;
37231;SDS011;23125;48.156;15.954;2022-11-30T07:58:55;53.15;;;23.35;;
37231;SDS011;23125;48.156;15.954;2022-11-30T08:01:24;52.53;;;22.95;;
37231;SDS011;23125;48.156;15.954;2022-11-30T08:03:52;55.58;;;23.67;;
37231;SDS011;23125;48.156;15.954;2022-11-30T08:06:20;48.58;;;21.88;;
37231;SDS011;23125;48.156;15.954;2022-11-30T08:08:48;52.88;;;24.77;;
37231;SDS011;23125;48.156;15.954;2022-11-30T08:11:17;52.83;;;24.13;;
37231;SDS011;23125;48.156;15.954;2022-11-30T08:13:45;54.92;;;23.58;;
37231;SDS011;23125;48.156;15.954;2022-11-30T08:16:13;51.47;;;23.63;;
37231;SDS011;23125;48.156;15.954;2022-11-30T08:18:40;54.90;;;23.17;;
37231;SDS011;23125;48.156;15.954;2022-11-30T08:21:08;52.45;;;24.80;;
37231;SDS011;23125;48.156;15.954;2022-11-30T08:23:37;51.42;;;23.15;;
37231;SDS011;23125;48.156;15.954;2022-11-30T08:26:05;52.00;;;21.63;;
37231;SDS011;23125;48.156;15.954;2022-11-30T08:28:34;50.13;;;23.05;;
37231;SDS011;23125;48.156;15.954;2022-11-30T08:31:04;46.85;;;22.10;;
37231;SDS011;23125;48.156;15.954;2022-11-30T08:33:32;48.30;;;22.75;;
37231;SDS011;23125;48.156;15.954;2022-11-30T08:38:35;49.33;;;22.45;;
37231;SDS011;23125;48.156;15.954;2022-11-30T08:41:01;43.53;;;21.67;;
37231;SDS011;23125;48.156;15.954;2022-11-30T08:43:28;51.03;;;23.08;;
37231;SDS011;23125;48.156;15.954;2022-11-30T08:45:54;39.80;;;19.05;;
37231;SDS011;23125;48.156;15.954;2022-11-30T08:48:20;36.20;;;17.13;;
37231;SDS011;23125;48.156;15.954;2022-11-30T08:50:46;45.60;;;20.52;;
37231;SDS011;23125;48.156;15.954;2022-11-30T08:53:12;41.15;;;19.05;;
37231;SDS011;23125;48.156;15.954;2022-11-30T08:55:37;39.70;;;19.30;;
37231;SDS011;23125;48.156;15.954;2022-11-30T08:58:03;38.20;;;18.25;;
37231;SDS011;23125;48.156;15.954;2022-11-30T09:00:29;42.28;;;18.83;;
37231;SDS011;23125;48.156;15.954;2022-11-30T09:02:55;46.65;;;23.08;;
37231;SDS011;23125;48.156;15.954;2022-11-30T09:05:21;44.65;;;21.67;;
37231;SDS011;23125;48.156;15.954;2022-11-30T09:07:47;42.00;;;20.00;;
37231;SDS011;23125;48.156;15.954;2022-11-30T09:10:13;40.58;;;21.20;;
37231;SDS011;23125;48.156;15.954;2022-11-30T09:12:39;37.15;;;18.23;;
37231;SDS011;23125;48.156;15.954;2022-11-30T09:15:06;39.90;;;20.02;;
37231;SDS011;23125;48.156;15.954;2022-11-30T09:17:34;40.55;;;19.15;;
37231;SDS011;23125;48.156;15.954;2022-11-30T09:20:00;38.83;;;19.40;;
37231;SDS011;23125;48.156;15.954;2022-11-30T09:22:27;39.17;;;20.00;;
37231;SDS011;23125;48.156;15.954;2022-11-30T09:24:53;37.20;;;19.92;;
37231;SDS011;23125;48.156;15.954;2022-11-30T09:27:19;43.55;;;21.15;;
37231;SDS011;23125;48.156;15.954;2022-11-30T09:29:45;38.90;;;18.65;;
37231;SDS011;23125;48.156;15.954;2022-11-30T09:32:11;41.28;;;18.77;;
37231;SDS011;23125;48.156;15.954;2022-11-30T09:34:37;39.70;;;19.95;;
37231;SDS011;23125;48.156;15.954;2022-11-30T09:37:03;37.88;;;18.45;;
37231;SDS011;23125;48.156;15.954;2022-11-30T09:39:28;36.88;;;18.80;;
37231;SDS011;23125;48.156;15.954;2022-11-30T09:50:14;32.83;;;15.98;;
37231;SDS011;23125;48.156;15.954;2022-11-30T09:52:45;34.42;;;17.33;;
37231;SDS011;23125;48.156;15.954;2022-11-30T09:55:21;31.15;;;17.30;;
37231;SDS011;23125;48.156;15.954;2022-11-30T09:57:52;32.42;;;15.93;;
37231;SDS011;23125;48.156;15.954;2022-11-30T10:00:22;27.95;;;14.70;;
37231;SDS011;23125;48.156;15.954;2022-11-30T10:02:49;29.17;;;13.85;;
37231;SDS011;23125;48.156;15.954;2022-11-30T10:08:30;22.90;;;12.27;;
37231;SDS011;23125;48.156;15.954;2022-11-30T10:17:52;25.83;;;13.20;;
37231;SDS011;23125;48.156;15.954;2022-11-30T10:25:07;23.98;;;11.80;;
37231;SDS011;23125;48.156;15.954;2022-11-30T10:30:15;22.83;;;12.55;;
37231;SDS011;23125;48.156;15.954;2022-11-30T10:32:48;19.52;;;10.52;;
37231;SDS011;23125;48.156;15.954;2022-11-30T10:35:27;23.92;;;12.73;;
37231;SDS011;23125;48.156;15.954;2022-11-30T10:37:54;25.10;;;13.40;;
37231;SDS011;23125;48.156;15.954;2022-11-30T10:40:56;18.02;;;10.38;;
37231;SDS011;23125;48.156;15.954;2022-11-30T10:43:29;19.30;;;10.35;;
37231;SDS011;23125;48.156;15.954;2022-11-30T10:45:57;19.40;;;10.63;;
37231;SDS011;23125;48.156;15.954;2022-11-30T10:50:51;20.27;;;10.95;;
37231;SDS011;23125;48.156;15.954;2022-11-30T10:53:18;20.10;;;11.30;;
37231;SDS011;23125;48.156;15.954;2022-11-30T10:55:48;20.98;;;11.65;;
37231;SDS011;23125;48.156;15.954;2022-11-30T10:58:30;23.45;;;12.63;;
37231;SDS011;23125;48.156;15.954;2022-11-30T11:01:02;28.75;;;15.35;;
37231;SDS011;23125;48.156;15.954;2022-11-30T11:03:31;28.23;;;14.82;;
37231;SDS011;23125;48.156;15.954;2022-11-30T11:06:10;28.73;;;15.32;;
37231;SDS011;23125;48.156;15.954;2022-11-30T11:08:37;28.17;;;14.45;;
37231;SDS011;23125;48.156;15.954;2022-11-30T11:11:24;22.83;;;11.85;;
37231;SDS011;23125;48.156;15.954;2022-11-30T11:13:51;22.25;;;12.52;;
37231;SDS011;23125;48.156;15.954;2022-11-30T11:16:17;18.13;;;10.38;;
37231;SDS011;23125;48.156;15.954;2022-11-30T11:18:55;19.80;;;11.10;;
37231;SDS011;23125;48.156;15.954;2022-11-30T11:21:22;15.73;;;8.95;;
37231;SDS011;23125;48.156;15.954;2022-11-30T11:23:50;17.85;;;8.88;;
37231;SDS011;23125;48.156;15.954;2022-11-30T11:26:24;15.45;;;8.68;;
37231;SDS011;23125;48.156;15.954;2022-11-30T11:28:53;12.70;;;7.40;;
37231;SDS011;23125;48.156;15.954;2022-11-30T11:31:38;13.43;;;7.88;;
37231;SDS011;23125;48.156;15.954;2022-11-30T11:34:53;12.25;;;7.90;;
37231;SDS011;23125;48.156;15.954;2022-11-30T11:40:12;13.02;;;7.68;;
37231;SDS011;23125;48.156;15.954;2022-11-30T11:42:48;15.82;;;8.23;;
37231;SDS011;23125;48.156;15.954;2022-11-30T11:45:29;13.98;;;7.60;;
37231;SDS011;23125;48.156;15.954;2022-11-30T11:48:02;12.97;;;7.83;;
37231;SDS011;23125;48.156;15.954;2022-11-30T11:50:33;14.45;;;7.40;;
37231;SDS011;23125;48.156;15.954;2022-11-30T11:55:56;12.00;;;6.55;;
37231;SDS011;23125;48.156;15.954;2022-11-30T11:58:30;9.52;;;5.88;;
37231;SDS011;23125;48.156;15.954;2022-11-30T12:01:05;12.82;;;6.75;;
37231;SDS011;23125;48.156;15.954;2022-11-30T12:03:37;12.30;;;6.72;;
37231;SDS011;23125;48.156;15.954;2022-11-30T12:06:12;11.05;;;6.90;;
37231;SDS011;23125;48.156;15.954;2022-11-30T12:08:44;10.10;;;6.70;;
37231;SDS011;23125;48.156;15.954;2022-11-30T12:11:19;13.63;;;7.43;;
37231;SDS011;23125;48.156;15.954;2022-11-30T12:13:54;12.23;;;7.10;;
37231;SDS011;23125;48.156;15.954;2022-11-30T12:16:42;10.77;;;6.90;;
37231;SDS011;23125;48.156;15.954;2022-11-30T12:19:21;10.98;;;6.47;;
37231;SDS011;23125;48.156;15.954;2022-11-30T12:27:13;11.93;;;7.30;;
37231;SDS011;23125;48.156;15.954;2022-11-30T12:32:33;10.50;;;5.47;;
37231;SDS011;23125;48.156;15.954;2022-11-30T12:43:38;11.25;;;6.43;;
37231;SDS011;23125;48.156;15.954;2022-11-30T12:54:33;11.73;;;7.20;;
37231;SDS011;23125;48.156;15.954;2022-11-30T13:05:42;14.32;;;8.32;;
37231;SDS011;23125;48.156;15.954;2022-11-30T13:11:10;12.77;;;7.65;;
37231;SDS011;23125;48.156;15.954;2022-11-30T13:13:45;11.30;;;6.78;;
37231;SDS011;23125;48.156;15.954;2022-11-30T13:16:15;12.38;;;7.78;;
37231;SDS011;23125;48.156;15.954;2022-11-30T13:18:42;14.10;;;7.95;;
37231;SDS011;23125;48.156;15.954;2022-11-30T13:21:24;13.15;;;7.82;;
37231;SDS011;23125;48.156;15.954;2022-11-30T13:26:37;13.27;;;8.43;;
37231;SDS011;23125;48.156;15.954;2022-11-30T13:31:59;12.23;;;7.53;;
37231;SDS011;23125;48.156;15.954;2022-11-30T13:34:32;12.65;;;7.78;;
37231;SDS011;23125;48.156;15.954;2022-11-30T13:37:08;14.82;;;8.48;;
37231;SDS011;23125;48.156;15.954;2022-11-30T13:39:43;15.80;;;8.70;;
37231;SDS011;23125;48.156;15.954;2022-11-30T13:47:37;20.88;;;12.20;;
37231;SDS011;23125;48.156;15.954;2022-11-30T13:58:16;23.85;;;12.65;;
37231;SDS011;23125;48.156;15.954;2022-11-30T14:03:55;25.85;;;14.75;;
37231;SDS011;23125;48.156;15.954;2022-11-30T14:09:15;26.05;;;15.45;;
37231;SDS011;23125;48.156;15.954;2022-11-30T14:14:56;22.30;;;13.43;;
37231;SDS011;23125;48.156;15.954;2022-11-30T14:17:23;22.80;;;12.85;;
37231;SDS011;23125;48.156;15.954;2022-11-30T14:19:54;22.65;;;13.10;;
37231;SDS011;23125;48.156;15.954;2022-11-30T14:22:25;24.83;;;12.90;;
37231;SDS011;23125;48.156;15.954;2022-11-30T14:24:53;24.83;;;13.38;;
37231;SDS011;23125;48.156;15.954;2022-11-30T14:27:24;23.45;;;13.18;;
37231;SDS011;23125;48.156;15.954;2022-11-30T14:29:52;21.65;;;12.10;;
37231;SDS011;23125;48.156;15.954;2022-11-30T14:35:04;16.67;;;10.15;;
37231;SDS011;23125;48.156;15.954;2022-11-30T14:37:41;16.92;;;10.15;;
37231;SDS011;23125;48.156;15.954;2022-11-30T14:40:13;16.50;;;9.65;;
37231;SDS011;23125;48.156;15.954;2022-11-30T14:42:47;18.25;;;10.85;;
37231;SDS011;23125;48.156;15.954;2022-11-30T14:45:24;19.10;;;10.98;;
37231;SDS011;23125;48.156;15.954;2022-11-30T14:47:57;15.43;;;8.98;;
37231;SDS011;23125;48.156;15.954;2022-11-30T14:50:30;18.75;;;9.77;;
37231;SDS011;23125;48.156;15.954;2022-11-30T15:01:02;14.73;;;9.05;;
37231;SDS011;23125;48.156;15.954;2022-11-30T15:03:45;16.52;;;9.35;;
37231;SDS011;23125;48.156;15.954;2022-11-30T15:06:13;19.58;;;10.63;;
37231;SDS011;23125;48.156;15.954;2022-11-30T15:08:46;18.85;;;10.77;;
37231;SDS011;23125;48.156;15.954;2022-11-30T15:11:16;18.20;;;9.93;;
37231;SDS011;23125;48.156;15.954;2022-11-30T15:13:45;17.60;;;9.82;;
37231;SDS011;23125;48.156;15.954;2022-11-30T15:16:17;17.98;;;9.57;;
37231;SDS011;23125;48.156;15.954;2022-11-30T15:18:50;15.20;;;8.70;;
37231;SDS011;23125;48.156;15.954;2022-11-30T15:21:30;17.23;;;9.90;;
37231;SDS011;23125;48.156;15.954;2022-11-30T15:23:57;16.20;;;9.95;;
37231;SDS011;23125;48.156;15.954;2022-11-30T15:26:46;19.50;;;10.50;;
37231;SDS011;23125;48.156;15.954;2022-11-30T15:29:25;15.02;;;8.68;;
37231;SDS011;23125;48.156;15.954;2022-11-30T15:31:52;15.05;;;9.02;;
37231;SDS011;23125;48.156;15.954;2022-11-30T15:36:52;17.52;;;9.40;;
37231;SDS011;23125;48.156;15.954;2022-11-30T15:39:21;18.20;;;10.05;;
37231;SDS011;23125;48.156;15.954;2022-11-30T15:41:52;16.65;;;9.10;;
37231;SDS011;23125;48.156;15.954;2022-11-30T15:47:13;14.13;;;8.38;;
37231;SDS011;23125;48.156;15.954;2022-11-30T15:49:52;16.85;;;9.40;;
37231;SDS011;23125;48.156;15.954;2022-11-30T15:52:19;18.05;;;9.80;;
37231;SDS011;23125;48.156;15.954;2022-11-30T15:54:51;15.25;;;9.50;;
37231;SDS011;23125;48.156;15.954;2022-11-30T15:57:23;22.15;;;12.88;;
37231;SDS011;23125;48.156;15.954;2022-11-30T16:00:07;18.42;;;10.90;;
37231;SDS011;23125;48.156;15.954;2022-11-30T16:02:40;20.52;;;11.95;;
37231;SDS011;23125;48.156;15.954;2022-11-30T16:07:55;28.00;;;14.32;;
37231;SDS011;23125;48.156;15.954;2022-11-30T16:10:35;20.73;;;11.23;;
37231;SDS011;23125;48.156;15.954;2022-11-30T16:13:03;19.10;;;11.23;;
37231;SDS011;23125;48.156;15.954;2022-11-30T16:15:30;20.63;;;12.18;;
37231;SDS011;23125;48.156;15.954;2022-11-30T16:18:20;21.98;;;13.63;;
37231;SDS011;23125;48.156;15.954;2022-11-30T16:20:50;20.80;;;11.90;;
37231;SDS011;23125;48.156;15.954;2022-11-30T16:23:20;22.17;;;12.95;;
37231;SDS011;23125;48.156;15.954;2022-11-30T16:25:47;22.23;;;13.07;;
37231;SDS011;23125;48.156;15.954;2022-11-30T16:28:14;25.15;;;14.60;;
37231;SDS011;23125;48.156;15.954;2022-11-30T16:30:41;28.77;;;15.43;;
37231;SDS011;23125;48.156;15.954;2022-11-30T16:33:18;27.30;;;12.25;;
37231;SDS011;23125;48.156;15.954;2022-11-30T16:38:21;22.65;;;12.80;;